Time;durP1;ratioP1;P1;durP2;ratioP2;P2;SDS_P1;SDS_P2;PMS_P1;PMS_P2;Temp;Humidity;BMP_temperature;BMP_pressure;BME280_temperature;BME280_humidity;BME280_pressure;Samples;Min_cycle;Max_cycle;Signal;HPM_P1;HPM_P2
2021/12/22 00:00:17;;;;;;;16.70;8.97;;;-6.00;99.90;;;;;;5053933;28;20214;-69
2021/12/22 00:02:46;;;;;;;24.03;8.20;;;-6.00;99.90;;;;;;5058696;28;20173;-68
2021/12/22 00:05:28;;;;;;;14.87;7.40;;;-6.10;99.90;;;;;;5046274;28;20794;-68
2021/12/22 00:07:54;;;;;;;22.80;9.10;;;-6.20;99.90;;;;;;5046968;28;20431;-68
2021/12/22 00:10:21;;;;;;;18.73;8.83;;;-6.10;99.90;;;;;;5048111;28;20447;-68
2021/12/22 00:12:49;;;;;;;24.13;8.43;;;-6.10;99.90;;;;;;5046554;28;20420;-68
2021/12/22 00:15:15;;;;;;;19.53;9.37;;;-6.00;99.90;;;;;;5049874;28;20435;-68
2021/12/22 00:17:41;;;;;;;24.00;8.83;;;-6.00;99.90;;;;;;5050846;28;20777;-69
2021/12/22 00:20:09;;;;;;;24.17;10.70;;;-6.00;99.90;;;;;;5051094;28;20425;-68
2021/12/22 00:22:36;;;;;;;26.10;10.00;;;-6.00;99.90;;;;;;5051422;28;20431;-68
2021/12/22 00:25:03;;;;;;;17.17;8.50;;;-6.00;99.90;;;;;;5048220;28;20446;-70
2021/12/22 00:27:29;;;;;;;19.33;7.83;;;-6.10;99.90;;;;;;5042602;28;20485;-70
2021/12/22 00:29:55;;;;;;;14.60;7.00;;;-6.10;99.90;;;;;;5051571;28;20419;-70
2021/12/22 00:32:22;;;;;;;16.40;7.30;;;-6.10;99.90;;;;;;5033767;28;20913;-68
2021/12/22 00:34:52;;;;;;;16.67;8.20;;;-6.00;99.90;;;;;;5046240;28;20196;-68
2021/12/22 00:37:26;;;;;;;18.90;7.87;;;-6.00;99.90;;;;;;5047647;28;20415;-68
2021/12/22 00:39:53;;;;;;;17.33;8.67;;;-6.10;99.90;;;;;;5049573;28;20557;-68
2021/12/22 00:42:20;;;;;;;16.43;7.53;;;-6.10;99.90;;;;;;5046615;28;21060;-68
2021/12/22 00:44:49;;;;;;;22.83;9.00;;;-6.10;99.90;;;;;;5046415;28;20527;-68
2021/12/22 00:47:18;;;;;;;18.13;8.23;;;-6.10;99.90;;;;;;5045885;28;20478;-68
2021/12/22 00:49:44;;;;;;;23.60;8.20;;;-6.20;99.90;;;;;;5050716;28;20437;-68
2021/12/22 00:52:10;;;;;;;15.43;8.40;;;-6.20;99.90;;;;;;5049300;28;20889;-68
2021/12/22 00:54:35;;;;;;;1.77;0.83;;;-6.20;99.90;;;;;;5048922;28;20519;-68
2021/12/22 00:57:05;;;;;;;4.73;1.43;;;-6.30;99.90;;;;;;5040534;28;20178;-68
2021/12/22 00:59:35;;;;;;;1.67;0.80;;;-6.30;99.90;;;;;;5052123;28;20202;-69
2021/12/22 01:02:03;;;;;;;1.47;0.80;;;-6.30;99.90;;;;;;5046505;28;20499;-70
2021/12/22 01:04:29;;;;;;;19.20;7.90;;;-6.30;99.90;;;;;;5046201;28;20438;-70
2021/12/22 01:06:55;;;;;;;14.97;6.83;;;-6.30;99.90;;;;;;5046008;28;20416;-70
2021/12/22 01:09:21;;;;;;;1.30;0.67;;;-6.40;99.90;;;;;;5047364;28;20705;-70
2021/12/22 01:11:47;;;;;;;2.50;0.87;;;-6.50;99.90;;;;;;5040759;28;20221;-70
2021/12/22 01:14:13;;;;;;;1.10;0.40;;;-6.60;99.90;;;;;;5045125;28;20201;-70
2021/12/22 01:16:39;;;;;;;1.30;0.60;;;-6.60;99.90;;;;;;5045307;28;21009;-70
2021/12/22 01:19:12;;;;;;;1.77;1.03;;;-6.60;99.90;;;;;;5046217;28;20460;-70
2021/12/22 01:22:02;;;;;;;1.97;0.60;;;-6.50;99.90;;;;;;5051290;28;20956;-68
2021/12/22 01:24:32;;;;;;;19.00;8.40;;;-6.50;99.90;;;;;;5044075;28;20428;-68
2021/12/22 01:27:05;;;;;;;21.70;9.20;;;-6.50;99.90;;;;;;5050502;28;20518;-68
2021/12/22 01:29:36;;;;;;;17.10;7.80;;;-6.50;99.90;;;;;;5050809;28;20428;-68
2021/12/22 01:32:02;;;;;;;22.03;8.47;;;-6.60;99.90;;;;;;5055843;28;20923;-68
2021/12/22 01:34:29;;;;;;;12.40;6.70;;;-6.60;99.90;;;;;;5053745;28;20434;-68
2021/12/22 01:36:55;;;;;;;19.63;7.90;;;-6.70;99.90;;;;;;5057505;28;20465;-69
2021/12/22 01:39:20;;;;;;;12.83;6.40;;;-6.60;99.90;;;;;;5049659;28;20559;-68
2021/12/22 01:41:46;;;;;;;16.67;7.87;;;-6.40;99.90;;;;;;5049723;28;20197;-69
2021/12/22 01:44:27;;;;;;;14.23;6.93;;;-6.50;99.90;;;;;;5049868;28;20657;-69
2021/12/22 01:49:51;;;;;;;17.33;7.50;;;-6.60;99.90;;;;;;5050494;28;20427;-69
2021/12/22 01:52:21;;;;;;;17.20;7.60;;;-6.60;99.90;;;;;;5044521;28;20428;-68
2021/12/22 01:55:04;;;;;;;12.83;6.80;;;-6.60;99.90;;;;;;5049382;28;20486;-68
2021/12/22 01:57:32;;;;;;;16.87;7.67;;;-6.60;99.90;;;;;;5052821;28;20428;-68
2021/12/22 02:00:01;;;;;;;18.73;8.17;;;-6.60;99.90;;;;;;5050186;28;20459;-68
2021/12/22 02:02:28;;;;;;;13.87;7.53;;;-6.60;99.90;;;;;;5055557;28;20523;-68
2021/12/22 02:04:53;;;;;;;16.93;7.27;;;-6.70;99.90;;;;;;5051021;28;20435;-68
2021/12/22 02:07:19;;;;;;;19.77;6.97;;;-6.70;99.90;;;;;;5049109;28;20511;-68
2021/12/22 02:12:14;;;;;;;15.07;7.10;;;-6.70;99.90;;;;;;5054111;28;20194;-68
2021/12/22 02:14:41;;;;;;;12.27;6.50;;;-6.70;99.90;;;;;;5050353;28;20490;-68
2021/12/22 02:17:09;;;;;;;17.30;6.60;;;-6.60;99.90;;;;;;5058350;28;20473;-68
2021/12/22 02:19:46;;;;;;;17.30;7.30;;;-6.60;99.90;;;;;;5056585;28;20498;-68
2021/12/22 02:22:15;;;;;;;19.97;8.23;;;-6.60;99.90;;;;;;5052602;28;20558;-68
2021/12/22 02:24:56;;;;;;;12.80;6.47;;;-6.60;99.90;;;;;;5051170;28;20424;-68
2021/12/22 02:30:15;;;;;;;16.03;8.30;;;-6.60;99.90;;;;;;5047308;28;20419;-68
2021/12/22 02:35:09;;;;;;;20.13;8.27;;;-6.60;99.90;;;;;;5052555;28;20428;-68
2021/12/22 02:37:43;;;;;;;17.27;7.40;;;-6.60;99.90;;;;;;5054143;28;20462;-68
2021/12/22 02:40:13;;;;;;;16.97;7.87;;;-6.60;99.90;;;;;;5031145;28;20474;-68
2021/12/22 02:42:40;;;;;;;20.27;7.80;;;-6.70;99.90;;;;;;5048720;28;20478;-68
2021/12/22 02:45:12;;;;;;;15.10;7.30;;;-6.80;99.90;;;;;;5054479;28;20420;-68
2021/12/22 02:47:37;;;;;;;14.47;7.73;;;-6.80;99.90;;;;;;5048129;28;20436;-68
2021/12/22 02:50:05;;;;;;;12.80;6.43;;;-6.80;99.90;;;;;;5052893;28;20908;-68
2021/12/22 02:52:39;;;;;;;11.93;5.43;;;-6.80;99.90;;;;;;5053505;28;20292;-68
2021/12/22 02:55:05;;;;;;;13.77;7.30;;;-6.80;99.90;;;;;;5053211;28;20824;-68
2021/12/22 02:57:44;;;;;;;17.47;6.30;;;-6.80;99.90;;;;;;5050787;28;20514;-68
2021/12/22 03:00:33;;;;;;;15.93;6.43;;;-6.70;99.90;;;;;;5048322;28;20562;-68
2021/12/22 03:03:09;;;;;;;14.70;5.57;;;-6.80;99.90;;;;;;5043834;28;21177;-68
2021/12/22 03:05:37;;;;;;;16.23;6.90;;;-6.80;99.90;;;;;;5046230;28;20435;-68
2021/12/22 03:08:03;;;;;;;15.10;7.93;;;-6.80;99.90;;;;;;5050044;28;20477;-68
2021/12/22 03:10:29;;;;;;;16.13;6.33;;;-6.80;99.90;;;;;;5052289;28;20427;-68
2021/12/22 03:13:01;;;;;;;20.30;7.03;;;-6.70;99.90;;;;;;5047880;28;20419;-67
2021/12/22 03:15:27;;;;;;;12.50;5.70;;;-6.80;99.90;;;;;;5050072;28;20427;-70
2021/12/22 03:17:52;;;;;;;15.33;6.53;;;-6.80;99.90;;;;;;5047241;28;20424;-70
2021/12/22 03:20:18;;;;;;;17.30;6.73;;;-6.80;99.90;;;;;;5050914;28;20289;-68
2021/12/22 03:22:46;;;;;;;15.07;7.40;;;-6.80;99.90;;;;;;5051409;28;20265;-68
2021/12/22 03:25:15;;;;;;;13.63;6.73;;;-6.80;99.90;;;;;;5046764;28;20285;-67
2021/12/22 03:27:43;;;;;;;15.50;7.30;;;-6.80;99.90;;;;;;5046813;28;20424;-69
2021/12/22 03:30:10;;;;;;;12.70;6.23;;;-7.00;99.90;;;;;;5052011;28;21036;-67
2021/12/22 03:32:36;;;;;;;14.90;6.40;;;-7.00;99.90;;;;;;5052095;28;20484;-67
2021/12/22 03:35:02;;;;;;;14.27;7.30;;;-7.00;99.90;;;;;;5055308;28;20432;-67
2021/12/22 03:37:27;;;;;;;29.63;8.00;;;-7.00;99.90;;;;;;5052863;28;20207;-67
2021/12/22 03:39:53;;;;;;;10.77;5.67;;;-7.00;99.90;;;;;;5046928;28;20506;-68
2021/12/22 03:42:19;;;;;;;17.20;7.80;;;-7.00;99.90;;;;;;5047391;28;20181;-68
2021/12/22 03:44:45;;;;;;;14.13;6.60;;;-7.00;99.90;;;;;;5046640;28;20213;-68
2021/12/22 03:47:11;;;;;;;11.17;5.90;;;-7.00;99.90;;;;;;5056971;28;20189;-68
2021/12/22 03:49:36;;;;;;;22.90;6.50;;;-7.00;99.90;;;;;;5048708;28;20431;-68
2021/12/22 03:52:04;;;;;;;15.87;7.10;;;-7.10;99.90;;;;;;5046747;28;20236;-68
2021/12/22 03:54:30;;;;;;;15.20;5.93;;;-7.20;99.90;;;;;;5047334;28;20657;-68
2021/12/22 03:56:56;;;;;;;15.70;7.27;;;-7.20;99.90;;;;;;5046725;28;20437;-68
2021/12/22 03:59:23;;;;;;;10.17;6.10;;;-7.10;99.90;;;;;;5050019;28;20670;-68
2021/12/22 04:01:49;;;;;;;13.37;7.27;;;-7.20;99.90;;;;;;5049514;28;20485;-68
2021/12/22 04:04:18;;;;;;;18.57;7.73;;;-7.10;99.90;;;;;;5042968;28;20811;-68
2021/12/22 04:06:45;;;;;;;15.43;6.57;;;-7.10;99.90;;;;;;5049584;28;20423;-68
2021/12/22 04:09:13;;;;;;;15.73;6.93;;;-7.10;99.90;;;;;;5054224;28;20490;-68
2021/12/22 04:11:39;;;;;;;17.43;7.80;;;-7.10;99.90;;;;;;5028472;28;20850;-68
2021/12/22 04:14:04;;;;;;;21.43;7.33;;;-7.20;99.90;;;;;;5050301;28;20789;-68
2021/12/22 04:16:30;;;;;;;14.97;7.63;;;-7.20;99.90;;;;;;5045985;28;20661;-67
2021/12/22 04:18:56;;;;;;;17.27;5.93;;;-7.20;99.90;;;;;;5046226;28;20299;-67
2021/12/22 04:21:22;;;;;;;17.73;7.93;;;-7.10;99.90;;;;;;5047032;28;20181;-68
2021/12/22 04:23:47;;;;;;;13.00;6.50;;;-7.20;99.90;;;;;;5047362;28;20193;-68
2021/12/22 04:26:13;;;;;;;13.30;6.40;;;-7.20;99.90;;;;;;5045619;28;20200;-68
2021/12/22 04:28:40;;;;;;;15.83;6.90;;;-7.20;99.90;;;;;;5046421;28;20201;-68
2021/12/22 04:31:06;;;;;;;13.30;7.13;;;-7.30;99.90;;;;;;5044564;28;20515;-68
2021/12/22 04:33:31;;;;;;;15.20;7.23;;;-7.30;99.90;;;;;;5049562;28;20523;-68
2021/12/22 04:35:57;;;;;;;17.27;7.10;;;-7.20;99.90;;;;;;5054352;28;20652;-68
2021/12/22 04:38:23;;;;;;;16.00;8.17;;;-7.20;99.90;;;;;;5046409;28;20209;-69
2021/12/22 04:40:49;;;;;;;17.17;6.93;;;-7.10;99.90;;;;;;5050743;28;20217;-68
2021/12/22 04:43:15;;;;;;;14.00;7.17;;;-7.10;99.90;;;;;;5050525;28;20438;-68
2021/12/22 04:45:41;;;;;;;11.10;5.90;;;-7.10;99.90;;;;;;5052147;28;20458;-70
2021/12/22 04:48:07;;;;;;;13.97;6.50;;;-7.10;99.90;;;;;;5053094;28;20185;-70
2021/12/22 04:50:33;;;;;;;14.70;8.13;;;-7.00;99.90;;;;;;5037971;28;20189;-68
2021/12/22 04:53:06;;;;;;;15.57;7.67;;;-7.00;99.90;;;;;;5049136;28;20641;-68
2021/12/22 04:55:32;;;;;;;15.83;7.50;;;-7.10;99.90;;;;;;5046685;28;20440;-68
2021/12/22 04:57:58;;;;;;;17.13;6.27;;;-7.10;99.90;;;;;;5046045;28;20416;-68
2021/12/22 05:00:27;;;;;;;18.20;7.60;;;-7.10;99.90;;;;;;5050517;28;20268;-67
2021/12/22 05:02:54;;;;;;;15.33;8.13;;;-7.10;99.90;;;;;;5051925;28;20431;-68
2021/12/22 05:05:19;;;;;;;15.57;8.67;;;-7.10;99.90;;;;;;5051839;28;20440;-67
2021/12/22 05:07:47;;;;;;;17.83;8.27;;;-7.10;99.90;;;;;;5049839;28;20843;-68
2021/12/22 05:10:15;;;;;;;15.23;8.03;;;-7.10;99.90;;;;;;5050126;28;20222;-68
2021/12/22 05:12:41;;;;;;;17.80;7.43;;;-7.00;99.90;;;;;;5052484;28;20486;-68
2021/12/22 05:15:07;;;;;;;20.93;9.60;;;-7.10;99.90;;;;;;5049428;28;20522;-68
2021/12/22 05:20:13;;;;;;;18.70;8.57;;;-7.20;99.90;;;;;;5049961;28;20471;-68
2021/12/22 05:22:39;;;;;;;18.50;8.23;;;-7.10;99.90;;;;;;5054586;28;20444;-67
2021/12/22 05:25:08;;;;;;;19.63;8.07;;;-7.20;99.90;;;;;;5047314;28;21103;-68
2021/12/22 05:27:34;;;;;;;21.17;8.87;;;-7.30;99.90;;;;;;5056750;28;20504;-68
2021/12/22 05:30:01;;;;;;;14.37;6.67;;;-7.40;99.90;;;;;;5058515;28;20513;-68
2021/12/22 05:32:31;;;;;;;17.87;8.57;;;-7.40;99.90;;;;;;5031350;28;20459;-68
2021/12/22 05:34:58;;;;;;;21.30;8.33;;;-7.40;99.90;;;;;;5050321;28;20504;-67
2021/12/22 05:37:24;;;;;;;19.50;7.27;;;-7.40;99.90;;;;;;5049445;28;20515;-68
2021/12/22 05:39:49;;;;;;;20.93;8.73;;;-7.40;99.90;;;;;;5052380;28;20609;-68
2021/12/22 05:42:15;;;;;;;24.13;9.00;;;-7.50;99.90;;;;;;5055975;28;20826;-67
2021/12/22 05:44:42;;;;;;;15.27;7.23;;;-7.50;99.90;;;;;;5049693;28;20252;-68
2021/12/22 05:47:08;;;;;;;17.43;8.77;;;-7.60;99.90;;;;;;5048992;28;20215;-68
2021/12/22 05:49:34;;;;;;;23.90;9.17;;;-7.50;99.90;;;;;;5048936;28;20468;-68
2021/12/22 05:52:00;;;;;;;23.17;9.20;;;-7.50;99.90;;;;;;5053361;28;20432;-68
2021/12/22 05:54:26;;;;;;;22.10;9.93;;;-7.50;99.90;;;;;;5053319;28;20896;-67
2021/12/22 05:56:51;;;;;;;20.40;8.83;;;-7.50;99.90;;;;;;5050514;28;20757;-68
2021/12/22 05:59:17;;;;;;;24.73;10.17;;;-7.50;99.90;;;;;;5049166;28;20202;-68
2021/12/22 06:01:42;;;;;;;20.70;10.00;;;-7.50;99.90;;;;;;5050042;28;20196;-68
2021/12/22 06:04:08;;;;;;;22.80;8.87;;;-7.50;99.90;;;;;;5031866;28;20213;-68
2021/12/22 06:06:34;;;;;;;27.67;9.73;;;-7.30;99.90;;;;;;5050568;28;20264;-68
2021/12/22 06:08:59;;;;;;;24.20;9.93;;;-7.40;99.90;;;;;;5051461;28;20190;-68
2021/12/22 06:11:25;;;;;;;19.37;9.50;;;-7.40;99.90;;;;;;5033773;28;20824;-68
2021/12/22 06:13:51;;;;;;;18.93;8.80;;;-7.30;99.90;;;;;;5051905;28;20193;-68
2021/12/22 06:16:16;;;;;;;25.20;9.10;;;-7.30;99.90;;;;;;5051436;28;20836;-68
2021/12/22 06:18:44;;;;;;;17.80;9.27;;;-7.20;99.90;;;;;;5055617;28;20211;-68
2021/12/22 06:21:11;;;;;;;18.50;7.53;;;-7.20;99.90;;;;;;5049995;28;20806;-68
2021/12/22 06:23:37;;;;;;;16.87;8.03;;;-7.20;99.90;;;;;;5053271;28;20420;-67
2021/12/22 06:26:03;;;;;;;14.37;7.83;;;-7.20;99.90;;;;;;5050551;28;20501;-67
2021/12/22 06:28:29;;;;;;;20.23;9.17;;;-7.20;99.90;;;;;;5052733;28;20189;-68
2021/12/22 06:30:55;;;;;;;17.17;8.87;;;-7.20;99.90;;;;;;5050178;28;20486;-67
2021/12/22 06:33:22;;;;;;;17.10;7.87;;;-7.20;99.90;;;;;;5051558;28;20763;-67
2021/12/22 06:35:48;;;;;;;19.27;8.20;;;-7.30;99.90;;;;;;5048446;28;20200;-67
2021/12/22 06:38:15;;;;;;;19.40;7.37;;;-7.30;99.90;;;;;;5049660;28;20431;-68
2021/12/22 06:40:41;;;;;;;19.53;7.33;;;-7.40;99.90;;;;;;5052559;28;20556;-68
2021/12/22 06:43:07;;;;;;;20.10;8.10;;;-7.40;99.90;;;;;;5050703;28;20436;-67
2021/12/22 06:45:33;;;;;;;15.97;7.03;;;-7.40;99.90;;;;;;5046491;28;20436;-68
2021/12/22 06:47:58;;;;;;;25.90;10.03;;;-7.50;99.90;;;;;;5046474;28;20184;-68
2021/12/22 06:50:24;;;;;;;22.37;7.87;;;-7.40;99.90;;;;;;5048331;28;20356;-67
2021/12/22 06:52:50;;;;;;;16.00;8.40;;;-7.40;99.90;;;;;;5026596;28;20193;-67
2021/12/22 06:55:17;;;;;;;19.07;8.90;;;-7.40;99.90;;;;;;5051258;28;20194;-67
2021/12/22 06:57:42;;;;;;;19.80;8.30;;;-7.60;99.90;;;;;;5046599;28;20679;-68
2021/12/22 07:00:11;;;;;;;21.00;9.33;;;-7.70;99.90;;;;;;5030925;28;20468;-67
2021/12/22 07:02:38;;;;;;;21.40;9.10;;;-7.70;99.90;;;;;;5046416;28;20186;-67
2021/12/22 07:05:06;;;;;;;17.13;8.30;;;-7.60;99.90;;;;;;5046381;28;20443;-67
2021/12/22 07:07:32;;;;;;;29.33;10.80;;;-7.60;99.90;;;;;;5047473;28;20962;-68
2021/12/22 07:09:58;;;;;;;22.87;10.77;;;-7.50;99.90;;;;;;5047884;28;20581;-67
2021/12/22 07:12:24;;;;;;;27.73;10.45;;;-7.50;99.90;;;;;;5047676;28;21209;-67
2021/12/22 07:14:49;;;;;;;24.93;10.03;;;-7.50;99.90;;;;;;5048042;28;20177;-67
2021/12/22 07:17:15;;;;;;;34.10;12.13;;;-7.60;99.90;;;;;;5045620;28;20228;-68
2021/12/22 07:19:41;;;;;;;53.33;14.43;;;-7.70;99.90;;;;;;5047464;28;20213;-67
2021/12/22 07:22:06;;;;;;;51.63;15.67;;;-7.70;99.90;;;;;;5046775;28;20189;-67
2021/12/22 07:24:33;;;;;;;59.17;15.83;;;-7.70;99.90;;;;;;5047514;28;20178;-68
2021/12/22 07:26:59;;;;;;;53.23;14.67;;;-7.60;99.90;;;;;;5048014;28;20185;-67
2021/12/22 07:29:24;;;;;;;42.03;14.20;;;-7.50;99.90;;;;;;5047378;28;20474;-67
2021/12/22 07:31:50;;;;;;;49.30;17.33;;;-7.50;99.90;;;;;;5045695;28;20440;-67
2021/12/22 07:34:20;;;;;;;41.43;15.73;;;-7.50;99.90;;;;;;5045645;28;20186;-68
2021/12/22 07:36:54;;;;;;;38.53;13.67;;;-7.60;99.90;;;;;;5044204;28;20186;-68
2021/12/22 07:39:19;;;;;;;30.47;13.73;;;-7.60;99.90;;;;;;5043021;28;20463;-67
2021/12/22 07:41:45;;;;;;;36.13;15.10;;;-7.60;99.90;;;;;;5043340;28;21062;-67
2021/12/22 07:44:10;;;;;;;34.60;15.10;;;-7.60;99.90;;;;;;5045085;28;20185;-68
2021/12/22 07:46:36;;;;;;;26.80;13.67;;;-7.50;99.90;;;;;;5043312;28;20296;-67
2021/12/22 07:49:02;;;;;;;33.20;13.87;;;-7.40;99.90;;;;;;5046611;28;20186;-68
2021/12/22 07:51:28;;;;;;;30.20;12.67;;;-7.30;99.90;;;;;;5050011;28;20193;-68
2021/12/22 07:53:53;;;;;;;35.83;13.10;;;-7.20;99.90;;;;;;5042350;28;20727;-68
2021/12/22 07:56:19;;;;;;;26.20;11.97;;;-7.10;99.90;;;;;;5044889;28;20308;-68
2021/12/22 07:58:45;;;;;;;26.27;11.90;;;-7.00;99.90;;;;;;5039816;28;20658;-68
2021/12/22 08:01:10;;;;;;;35.47;12.50;;;-7.00;99.90;;;;;;5042086;28;20646;-68
2021/12/22 08:03:36;;;;;;;30.50;13.80;;;-6.90;99.90;;;;;;5044247;28;20189;-68
2021/12/22 08:06:02;;;;;;;35.77;13.27;;;-6.80;99.90;;;;;;5045478;28;20178;-68
2021/12/22 08:08:27;;;;;;;35.03;13.30;;;-6.80;99.90;;;;;;5044249;28;20933;-68
2021/12/22 08:10:53;;;;;;;29.23;13.00;;;-6.80;99.90;;;;;;5044760;28;20424;-68
2021/12/22 08:13:19;;;;;;;25.93;12.20;;;-6.80;99.90;;;;;;5027190;28;20190;-70
2021/12/22 08:15:45;;;;;;;26.07;11.77;;;-6.90;99.90;;;;;;5044642;28;20181;-68
2021/12/22 08:18:12;;;;;;;28.77;12.30;;;-6.80;99.90;;;;;;5045955;28;20427;-68
2021/12/22 08:20:37;;;;;;;24.63;12.17;;;-6.70;99.90;;;;;;5046718;28;20521;-68
2021/12/22 08:23:04;;;;;;;30.40;13.37;;;-6.60;99.90;;;;;;5054218;28;20904;-67
2021/12/22 08:25:29;;;;;;;36.50;13.63;;;-6.50;99.90;;;;;;5046414;28;20595;-67
2021/12/22 08:27:55;;;;;;;31.40;13.70;;;-6.40;99.90;;;;;;5047127;28;20461;-67
2021/12/22 08:30:21;;;;;;;45.17;18.70;;;-6.40;99.90;;;;;;5044466;28;20273;-67
2021/12/22 08:32:47;;;;;;;33.07;14.20;;;-6.30;99.90;;;;;;5046518;28;20198;-67
2021/12/22 08:35:15;;;;;;;36.13;14.83;;;-6.20;99.90;;;;;;5042595;28;20524;-67
2021/12/22 08:40:26;;;;;;;30.53;12.73;;;-5.90;99.90;;;;;;5050195;28;20473;-67
2021/12/22 08:42:52;;;;;;;30.03;12.80;;;-5.60;99.90;;;;;;5049468;28;21166;-69
2021/12/22 08:45:18;;;;;;;26.33;12.70;;;-5.40;99.90;;;;;;5046509;28;20197;-68
2021/12/22 08:47:45;;;;;;;31.70;11.27;;;-5.20;99.90;;;;;;5052842;28;21057;-69
2021/12/22 08:50:13;;;;;;;24.43;11.60;;;-5.00;99.90;;;;;;5049115;28;20430;-69
2021/12/22 08:52:39;;;;;;;24.30;11.27;;;-4.80;99.90;;;;;;5053688;28;20431;-69
2021/12/22 08:55:06;;;;;;;24.60;10.63;;;-4.50;99.90;;;;;;5051272;28;20515;-69
2021/12/22 08:57:31;;;;;;;22.17;10.37;;;-4.40;99.90;;;;;;5045541;28;20466;-69
2021/12/22 08:59:58;;;;;;;20.03;10.10;;;-4.30;99.90;;;;;;5045409;28;21122;-69
2021/12/22 09:02:24;;;;;;;23.67;9.50;;;-4.10;99.90;;;;;;5046355;28;20188;-69
2021/12/22 09:04:50;;;;;;;33.27;9.90;;;-4.00;99.90;;;;;;5045942;28;20511;-69
2021/12/22 09:07:15;;;;;;;24.00;10.30;;;-3.90;99.90;;;;;;5048686;28;20638;-69
2021/12/22 09:09:41;;;;;;;19.67;9.47;;;-3.80;99.90;;;;;;5044269;28;20190;-69
2021/12/22 09:12:07;;;;;;;23.70;10.13;;;-3.70;99.90;;;;;;5048224;28;20189;-69
2021/12/22 09:14:34;;;;;;;16.73;8.20;;;-3.60;99.90;;;;;;5046584;28;20181;-69
2021/12/22 09:17:00;;;;;;;25.17;11.00;;;-3.50;99.90;;;;;;5044294;28;21065;-69
2021/12/22 09:19:25;;;;;;;16.57;8.40;;;-3.50;99.90;;;;;;5046961;28;20464;-69
2021/12/22 09:21:51;;;;;;;20.30;8.77;;;-3.40;99.90;;;;;;5047765;28;20229;-69
2021/12/22 09:24:18;;;;;;;22.50;8.77;;;-3.30;99.90;;;;;;5049287;28;20186;-69
2021/12/22 09:26:44;;;;;;;25.13;9.00;;;-3.30;99.90;;;;;;5043487;28;20189;-69
2021/12/22 09:29:10;;;;;;;18.07;8.47;;;-3.20;99.90;;;;;;5044665;28;20428;-69
2021/12/22 09:31:36;;;;;;;20.90;7.60;;;-3.10;99.90;;;;;;5044347;28;20514;-69
2021/12/22 09:34:02;;;;;;;17.80;8.97;;;-3.10;99.90;;;;;;5045474;28;20427;-69
2021/12/22 09:36:27;;;;;;;17.37;7.97;;;-3.00;99.90;;;;;;5053287;28;20571;-69
2021/12/22 09:38:53;;;;;;;15.00;7.80;;;-3.00;99.90;;;;;;5049313;28;20229;-69
2021/12/22 09:41:19;;;;;;;23.50;9.20;;;-2.90;99.90;;;;;;5044513;28;20228;-70
2021/12/22 09:43:45;;;;;;;17.67;7.17;;;-2.90;99.90;;;;;;5044620;28;20297;-69
2021/12/22 09:46:15;;;;;;;16.63;7.03;;;-2.70;99.90;;;;;;5048932;28;20492;-69
2021/12/22 09:53:40;;;;;;;16.13;8.63;;;-2.20;99.90;;;;;;5050288;28;20214;-69
2021/12/22 09:56:06;;;;;;;22.53;6.93;;;-2.10;99.90;;;;;;5046183;28;20467;-69
2021/12/22 09:58:33;;;;;;;14.10;6.73;;;-2.10;99.90;;;;;;5031210;28;20460;-70
2021/12/22 10:00:59;;;;;;;16.13;7.33;;;-2.00;99.90;;;;;;5046319;28;20425;-71
2021/12/22 10:03:25;;;;;;;23.20;8.20;;;-2.10;99.90;;;;;;5050169;28;20484;-70
2021/12/22 10:05:52;;;;;;;21.80;8.93;;;-2.00;99.90;;;;;;5050189;28;20466;-69
2021/12/22 10:08:23;;;;;;;20.97;8.50;;;-1.90;99.90;;;;;;5053072;28;20959;-69
2021/12/22 10:11:07;;;;;;;14.80;7.47;;;-1.90;99.90;;;;;;5042982;28;20766;-69
2021/12/22 10:13:34;;;;;;;18.10;6.90;;;-1.80;99.80;;;;;;5043130;28;20444;-69
2021/12/22 10:16:13;;;;;;;18.77;8.67;;;-1.70;99.60;;;;;;5046384;28;20427;-69
2021/12/22 10:18:39;;;;;;;13.27;7.17;;;-1.60;99.80;;;;;;5048276;28;20471;-69
2021/12/22 10:21:24;;;;;;;11.33;6.40;;;-1.60;99.30;;;;;;5044970;28;20469;-70
2021/12/22 10:23:52;;;;;;;15.80;6.87;;;-1.60;99.10;;;;;;5050604;28;20177;-71
2021/12/22 10:26:20;;;;;;;15.50;6.37;;;-1.50;99.10;;;;;;5053176;28;20443;-69
2021/12/22 10:29:01;;;;;;;11.87;5.53;;;-1.40;99.20;;;;;;5049981;28;21196;-69
2021/12/22 10:31:40;;;;;;;18.53;7.43;;;-1.30;99.20;;;;;;5044950;28;20422;-69
2021/12/22 10:34:08;;;;;;;13.00;7.13;;;-1.10;99.20;;;;;;5045358;28;20787;-69
2021/12/22 10:36:53;;;;;;;16.50;7.17;;;-0.90;99.20;;;;;;5044185;28;20420;-69
2021/12/22 10:39:21;;;;;;;16.57;8.10;;;-0.70;98.90;;;;;;5045647;28;20495;-69
2021/12/22 10:41:47;;;;;;;19.10;7.50;;;-0.70;99.10;;;;;;5045615;28;20441;-69
2021/12/22 10:44:13;;;;;;;20.83;7.63;;;-0.70;98.50;;;;;;5043051;28;20426;-69
2021/12/22 10:46:38;;;;;;;23.53;7.20;;;-0.70;97.90;;;;;;5047598;28;20417;-69
2021/12/22 10:49:21;;;;;;;14.83;7.63;;;-0.70;98.30;;;;;;5041362;28;20273;-69
2021/12/22 10:52:02;;;;;;;26.33;9.07;;;-0.40;97.90;;;;;;5042338;28;20200;-69
2021/12/22 10:54:36;;;;;;;14.27;6.70;;;-0.50;97.90;;;;;;5036244;28;20949;-69
2021/12/22 10:57:08;;;;;;;16.03;7.73;;;-0.20;97.70;;;;;;5043753;28;20885;-69
2021/12/22 10:59:45;;;;;;;23.77;8.80;;;-0.30;98.10;;;;;;5047142;28;20467;-69
2021/12/22 11:02:18;;;;;;;16.40;7.43;;;-0.10;97.00;;;;;;5048789;28;21314;-68
2021/12/22 11:04:44;;;;;;;20.83;9.57;;;-0.20;98.10;;;;;;5048797;28;20531;-68
2021/12/22 11:07:25;;;;;;;16.47;7.50;;;-0.30;97.60;;;;;;5045173;28;20416;-69
2021/12/22 11:09:51;;;;;;;14.20;7.83;;;-0.30;97.40;;;;;;5050054;28;20502;-68
2021/12/22 11:12:17;;;;;;;14.23;6.90;;;-0.10;96.90;;;;;;5047234;28;20460;-69
2021/12/22 11:14:51;;;;;;;16.73;7.90;;;-0.30;97.60;;;;;;5049338;28;20478;-69
2021/12/22 11:17:22;;;;;;;18.60;8.10;;;-0.20;97.70;;;;;;5044879;28;20499;-68
2021/12/22 11:19:52;;;;;;;37.67;9.40;;;-0.10;98.00;;;;;;5045098;28;20483;-68
2021/12/22 11:22:22;;;;;;;18.83;7.80;;;-0.10;97.50;;;;;;5048064;28;20527;-68
2021/12/22 11:24:50;;;;;;;22.03;9.33;;;-0.10;97.80;;;;;;5050667;28;20947;-69
2021/12/22 11:27:19;;;;;;;17.57;8.77;;;0.00;97.30;;;;;;5048723;28;20439;-69
2021/12/22 11:29:51;;;;;;;13.43;6.47;;;0.00;97.50;;;;;;5044566;28;20439;-69
2021/12/22 11:32:19;;;;;;;14.17;7.53;;;0.10;97.20;;;;;;5044877;28;20474;-69
2021/12/22 11:34:49;;;;;;;16.43;7.77;;;0.10;97.40;;;;;;5053972;28;20421;-69
2021/12/22 11:37:16;;;;;;;16.37;7.83;;;0.20;97.50;;;;;;5048180;28;20499;-69
2021/12/22 11:39:43;;;;;;;12.20;7.47;;;0.20;97.40;;;;;;5047242;28;20827;-71
2021/12/22 11:42:12;;;;;;;18.40;7.60;;;0.20;97.30;;;;;;5046012;28;20423;-72
2021/12/22 11:44:40;;;;;;;12.33;6.33;;;0.30;97.40;;;;;;5042284;28;20571;-72
2021/12/22 11:47:11;;;;;;;13.67;6.30;;;0.40;96.80;;;;;;5043728;28;20897;-72
2021/12/22 11:49:52;;;;;;;14.43;7.57;;;0.60;95.80;;;;;;5042807;28;20471;-72
2021/12/22 11:52:36;;;;;;;17.50;6.90;;;0.60;95.70;;;;;;5044088;28;20447;-71
2021/12/22 11:55:17;;;;;;;15.03;6.50;;;0.50;95.80;;;;;;5044459;28;20424;-71
2021/12/22 11:57:45;;;;;;;23.40;9.20;;;0.50;95.90;;;;;;5041639;28;20454;-71
2021/12/22 12:00:23;;;;;;;14.97;6.50;;;0.60;95.90;;;;;;5035979;28;20780;-71
2021/12/22 12:02:50;;;;;;;14.90;7.60;;;0.60;95.50;;;;;;5038927;28;20446;-71
2021/12/22 12:05:30;;;;;;;12.50;6.50;;;0.50;95.50;;;;;;5040754;28;20822;-71
2021/12/22 12:08:14;;;;;;;15.20;6.77;;;0.50;95.80;;;;;;5035797;28;20483;-71
2021/12/22 12:10:45;;;;;;;21.63;8.53;;;0.50;95.60;;;;;;5044387;28;20415;-71
2021/12/22 12:13:27;;;;;;;18.17;7.47;;;0.50;96.10;;;;;;5049670;28;20939;-71
2021/12/22 12:21:56;;;;;;;15.07;6.70;;;0.60;95.00;;;;;;5044083;28;20513;-72
2021/12/22 12:24:30;;;;;;;19.53;6.90;;;0.70;94.80;;;;;;5046695;28;20447;-71
2021/12/22 12:27:02;;;;;;;23.10;7.03;;;0.50;95.20;;;;;;5045567;28;20432;-72
2021/12/22 12:30:05;;;;;;;15.33;6.90;;;0.60;96.10;;;;;;5045239;28;20432;-71
2021/12/22 12:32:39;;;;;;;15.30;6.80;;;0.50;95.80;;;;;;5045668;28;20430;-71
2021/12/22 12:35:20;;;;;;;12.53;7.17;;;0.50;95.60;;;;;;5043501;28;20425;-70
2021/12/22 12:38:04;;;;;;;18.20;7.90;;;0.40;95.80;;;;;;5040558;28;20419;-71
2021/12/22 12:40:55;;;;;;;18.90;7.47;;;0.60;95.80;;;;;;5043681;28;20463;-70
2021/12/22 12:43:42;;;;;;;;;;;;;;;;;;;;;
2021/12/22 12:46:29;;;;;;;18.40;6.90;;;0.50;95.70;;;;;;5039689;28;20427;-71
2021/12/22 12:49:03;;;;;;;16.23;7.77;;;0.60;95.60;;;;;;5044928;28;20424;-72
2021/12/22 12:51:31;;;;;;;20.03;6.30;;;0.60;95.50;;;;;;5046572;28;20423;-71
2021/12/22 12:54:07;;;;;;;11.63;6.20;;;0.50;95.90;;;;;;5047265;28;20459;-73
2021/12/22 12:56:38;;;;;;;15.93;6.80;;;0.50;95.70;;;;;;5042978;28;20435;-74
2021/12/22 12:59:07;;;;;;;18.17;7.50;;;0.50;95.50;;;;;;5036784;28;20464;-75
2021/12/22 13:01:50;;;;;;;13.20;6.93;;;0.60;95.30;;;;;;5049706;28;20511;-75
2021/12/22 13:04:36;;;;;;;18.70;8.20;;;0.40;95.60;;;;;;5049254;28;20420;-75
2021/12/22 13:07:05;;;;;;;14.30;8.17;;;0.40;95.70;;;;;;5051738;28;20432;-75
2021/12/22 13:09:40;;;;;;;19.17;8.63;;;0.40;96.00;;;;;;5053666;28;20424;-75
2021/12/22 13:12:35;;;;;;;18.77;7.87;;;0.40;96.00;;;;;;5051834;28;20538;-75